sensor_id;sensor_type;location;lat;lon;timestamp;temperature;humidity
21035;DHT22;10676;50.848;3.272;2023-12-07T00:01:06;3.80;99.90
21035;DHT22;10676;50.848;3.272;2023-12-07T00:03:32;3.80;99.90
21035;DHT22;10676;50.848;3.272;2023-12-07T00:05:57;3.80;99.90
21035;DHT22;10676;50.848;3.272;2023-12-07T00:08:23;4.00;99.90
21035;DHT22;10676;50.848;3.272;2023-12-07T00:10:49;3.90;99.90
21035;DHT22;10676;50.848;3.272;2023-12-07T00:13:14;3.90;99.90
21035;DHT22;10676;50.848;3.272;2023-12-07T00:15:40;3.90;99.90
21035;DHT22;10676;50.848;3.272;2023-12-07T00:18:06;3.90;99.90
21035;DHT22;10676;50.848;3.272;2023-12-07T00:20:31;3.90;99.90
21035;DHT22;10676;50.848;3.272;2023-12-07T00:22:57;3.90;99.90
21035;DHT22;10676;50.848;3.272;2023-12-07T00:25:23;4.00;99.90
21035;DHT22;10676;50.848;3.272;2023-12-07T00:27:49;4.10;99.90
21035;DHT22;10676;50.848;3.272;2023-12-07T00:30:15;4.00;99.90
21035;DHT22;10676;50.848;3.272;2023-12-07T00:32:41;4.00;99.90
21035;DHT22;10676;50.848;3.272;2023-12-07T00:35:13;4.10;99.90
21035;DHT22;10676;50.848;3.272;2023-12-07T00:37:40;4.10;99.90
21035;DHT22;10676;50.848;3.272;2023-12-07T00:40:06;4.10;99.90
21035;DHT22;10676;50.848;3.272;2023-12-07T00:42:33;4.10;99.90
21035;DHT22;10676;50.848;3.272;2023-12-07T00:45:00;4.20;99.90
21035;DHT22;10676;50.848;3.272;2023-12-07T00:47:26;4.30;99.90
21035;DHT22;10676;50.848;3.272;2023-12-07T00:49:51;4.20;99.90
21035;DHT22;10676;50.848;3.272;2023-12-07T00:52:17;4.30;99.90
21035;DHT22;10676;50.848;3.272;2023-12-07T00:54:43;4.30;99.90
21035;DHT22;10676;50.848;3.272;2023-12-07T00:57:09;4.30;99.90
21035;DHT22;10676;50.848;3.272;2023-12-07T00:59:35;4.40;99.90
21035;DHT22;10676;50.848;3.272;2023-12-07T01:02:08;4.40;99.90
21035;DHT22;10676;50.848;3.272;2023-12-07T01:04:33;4.40;99.90
21035;DHT22;10676;50.848;3.272;2023-12-07T01:06:59;4.40;99.90
21035;DHT22;10676;50.848;3.272;2023-12-07T01:09:25;4.50;99.90
21035;DHT22;10676;50.848;3.272;2023-12-07T01:11:52;4.40;99.90
21035;DHT22;10676;50.848;3.272;2023-12-07T01:14:18;4.50;99.90
21035;DHT22;10676;50.848;3.272;2023-12-07T01:16:44;4.40;99.90
21035;DHT22;10676;50.848;3.272;2023-12-07T01:19:10;4.40;99.90
21035;DHT22;10676;50.848;3.272;2023-12-07T01:21:38;4.50;99.90
21035;DHT22;10676;50.848;3.272;2023-12-07T01:24:05;4.50;99.90
21035;DHT22;10676;50.848;3.272;2023-12-07T01:26:30;4.50;99.90
21035;DHT22;10676;50.848;3.272;2023-12-07T01:28:56;4.60;99.90
21035;DHT22;10676;50.848;3.272;2023-12-07T01:31:21;4.60;99.90
21035;DHT22;10676;50.848;3.272;2023-12-07T01:33:47;4.60;99.90
21035;DHT22;10676;50.848;3.272;2023-12-07T01:36:13;4.60;99.90
21035;DHT22;10676;50.848;3.272;2023-12-07T01:38:38;4.60;99.90
21035;DHT22;10676;50.848;3.272;2023-12-07T01:41:04;4.70;99.90
21035;DHT22;10676;50.848;3.272;2023-12-07T01:43:30;4.70;99.90
21035;DHT22;10676;50.848;3.272;2023-12-07T01:45:57;4.70;99.90
21035;DHT22;10676;50.848;3.272;2023-12-07T01:48:25;4.70;99.90
21035;DHT22;10676;50.848;3.272;2023-12-07T01:50:55;4.70;99.90
21035;DHT22;10676;50.848;3.272;2023-12-07T01:53:23;4.70;99.90
21035;DHT22;10676;50.848;3.272;2023-12-07T01:55:51;4.80;99.90
21035;DHT22;10676;50.848;3.272;2023-12-07T01:58:17;4.80;99.90
21035;DHT22;10676;50.848;3.272;2023-12-07T02:00:43;4.80;99.90
21035;DHT22;10676;50.848;3.272;2023-12-07T02:03:10;4.90;99.90
21035;DHT22;10676;50.848;3.272;2023-12-07T02:05:37;4.90;99.90
21035;DHT22;10676;50.848;3.272;2023-12-07T02:08:06;4.90;99.90
21035;DHT22;10676;50.848;3.272;2023-12-07T02:10:32;4.90;99.90
21035;DHT22;10676;50.848;3.272;2023-12-07T02:12:57;4.90;99.90
21035;DHT22;10676;50.848;3.272;2023-12-07T02:15:23;4.90;99.90
21035;DHT22;10676;50.848;3.272;2023-12-07T02:20:42;5.00;99.90
21035;DHT22;10676;50.848;3.272;2023-12-07T02:23:11;5.00;99.90
21035;DHT22;10676;50.848;3.272;2023-12-07T02:28:11;5.00;99.90
21035;DHT22;10676;50.848;3.272;2023-12-07T02:30:37;5.10;99.90
21035;DHT22;10676;50.848;3.272;2023-12-07T02:33:03;5.10;99.90
21035;DHT22;10676;50.848;3.272;2023-12-07T02:35:30;5.10;99.90
21035;DHT22;10676;50.848;3.272;2023-12-07T02:37:56;5.10;99.90
21035;DHT22;10676;50.848;3.272;2023-12-07T02:40:27;5.10;99.90
21035;DHT22;10676;50.848;3.272;2023-12-07T02:42:54;5.10;99.90
21035;DHT22;10676;50.848;3.272;2023-12-07T02:45:20;5.20;99.90
21035;DHT22;10676;50.848;3.272;2023-12-07T02:47:46;5.10;99.90
21035;DHT22;10676;50.848;3.272;2023-12-07T02:50:12;5.20;99.90
21035;DHT22;10676;50.848;3.272;2023-12-07T02:52:39;5.10;99.90
21035;DHT22;10676;50.848;3.272;2023-12-07T02:55:05;5.20;99.90
21035;DHT22;10676;50.848;3.272;2023-12-07T02:57:31;5.10;99.90
21035;DHT22;10676;50.848;3.272;2023-12-07T02:59:59;5.10;99.90
21035;DHT22;10676;50.848;3.272;2023-12-07T03:02:25;5.20;99.90
21035;DHT22;10676;50.848;3.272;2023-12-07T03:04:51;5.20;99.90
21035;DHT22;10676;50.848;3.272;2023-12-07T03:07:16;5.20;99.90
21035;DHT22;10676;50.848;3.272;2023-12-07T03:09:42;5.20;99.90
21035;DHT22;10676;50.848;3.272;2023-12-07T03:12:08;5.20;99.90
21035;DHT22;10676;50.848;3.272;2023-12-07T03:14:33;5.20;99.90
21035;DHT22;10676;50.848;3.272;2023-12-07T03:16:59;5.30;99.90
21035;DHT22;10676;50.848;3.272;2023-12-07T03:19:25;5.30;99.90
21035;DHT22;10676;50.848;3.272;2023-12-07T03:21:50;5.30;99.90
21035;DHT22;10676;50.848;3.272;2023-12-07T03:24:16;5.20;99.90
21035;DHT22;10676;50.848;3.272;2023-12-07T03:26:42;5.20;99.90
21035;DHT22;10676;50.848;3.272;2023-12-07T03:29:07;5.30;99.90
21035;DHT22;10676;50.848;3.272;2023-12-07T03:31:33;5.30;99.90
21035;DHT22;10676;50.848;3.272;2023-12-07T03:33:59;5.20;99.90
21035;DHT22;10676;50.848;3.272;2023-12-07T03:36:26;5.30;99.90
21035;DHT22;10676;50.848;3.272;2023-12-07T03:38:52;5.30;99.90
21035;DHT22;10676;50.848;3.272;2023-12-07T03:41:18;5.30;99.90
21035;DHT22;10676;50.848;3.272;2023-12-07T03:43:44;5.30;99.90
21035;DHT22;10676;50.848;3.272;2023-12-07T03:46:09;5.30;99.90
21035;DHT22;10676;50.848;3.272;2023-12-07T03:48:35;5.30;99.90
21035;DHT22;10676;50.848;3.272;2023-12-07T03:51:01;5.30;99.90
21035;DHT22;10676;50.848;3.272;2023-12-07T03:53:27;5.30;99.90
21035;DHT22;10676;50.848;3.272;2023-12-07T03:55:53;5.30;99.90
21035;DHT22;10676;50.848;3.272;2023-12-07T03:58:19;5.40;99.90
21035;DHT22;10676;50.848;3.272;2023-12-07T04:00:45;5.40;99.90
21035;DHT22;10676;50.848;3.272;2023-12-07T04:03:10;5.40;99.90
21035;DHT22;10676;50.848;3.272;2023-12-07T04:05:36;5.40;99.90
21035;DHT22;10676;50.848;3.272;2023-12-07T04:08:03;5.40;99.90
21035;DHT22;10676;50.848;3.272;2023-12-07T04:10:30;5.50;99.90
21035;DHT22;10676;50.848;3.272;2023-12-07T04:12:56;5.50;99.90
21035;DHT22;10676;50.848;3.272;2023-12-07T04:15:22;5.50;99.90
21035;DHT22;10676;50.848;3.272;2023-12-07T04:17:48;5.50;99.90
21035;DHT22;10676;50.848;3.272;2023-12-07T04:20:14;5.50;99.90
21035;DHT22;10676;50.848;3.272;2023-12-07T04:22:40;5.50;99.90
21035;DHT22;10676;50.848;3.272;2023-12-07T04:25:06;5.50;99.90
21035;DHT22;10676;50.848;3.272;2023-12-07T04:27:33;5.50;99.90
21035;DHT22;10676;50.848;3.272;2023-12-07T04:29:58;5.50;99.90
21035;DHT22;10676;50.848;3.272;2023-12-07T04:32:24;5.50;99.90
21035;DHT22;10676;50.848;3.272;2023-12-07T04:34:50;5.50;99.90
21035;DHT22;10676;50.848;3.272;2023-12-07T04:37:15;5.50;99.90
21035;DHT22;10676;50.848;3.272;2023-12-07T04:39:41;5.50;99.90
21035;DHT22;10676;50.848;3.272;2023-12-07T04:42:07;5.60;99.90
21035;DHT22;10676;50.848;3.272;2023-12-07T04:44:33;5.60;99.90
21035;DHT22;10676;50.848;3.272;2023-12-07T04:46:58;5.60;99.90
21035;DHT22;10676;50.848;3.272;2023-12-07T04:49:24;5.70;99.90
21035;DHT22;10676;50.848;3.272;2023-12-07T04:51:50;5.60;99.90
21035;DHT22;10676;50.848;3.272;2023-12-07T04:54:15;5.60;99.90
21035;DHT22;10676;50.848;3.272;2023-12-07T04:56:41;5.60;99.90
21035;DHT22;10676;50.848;3.272;2023-12-07T04:59:08;5.60;99.90
21035;DHT22;10676;50.848;3.272;2023-12-07T05:01:35;5.60;99.90
21035;DHT22;10676;50.848;3.272;2023-12-07T05:04:02;5.60;99.90
21035;DHT22;10676;50.848;3.272;2023-12-07T05:06:29;5.60;99.90
21035;DHT22;10676;50.848;3.272;2023-12-07T05:08:55;5.60;99.90
21035;DHT22;10676;50.848;3.272;2023-12-07T05:11:20;5.70;99.90
21035;DHT22;10676;50.848;3.272;2023-12-07T05:13:46;5.60;99.90
21035;DHT22;10676;50.848;3.272;2023-12-07T05:16:13;5.60;99.90
21035;DHT22;10676;50.848;3.272;2023-12-07T05:18:39;5.60;99.90
21035;DHT22;10676;50.848;3.272;2023-12-07T05:21:05;5.60;99.90
21035;DHT22;10676;50.848;3.272;2023-12-07T05:23:31;5.60;99.90
21035;DHT22;10676;50.848;3.272;2023-12-07T05:25:57;5.60;99.90
21035;DHT22;10676;50.848;3.272;2023-12-07T05:28:22;5.60;99.90
21035;DHT22;10676;50.848;3.272;2023-12-07T05:30:48;5.60;99.90
21035;DHT22;10676;50.848;3.272;2023-12-07T05:33:15;5.60;99.90
21035;DHT22;10676;50.848;3.272;2023-12-07T05:35:40;5.60;99.90
21035;DHT22;10676;50.848;3.272;2023-12-07T05:38:08;5.60;99.90
21035;DHT22;10676;50.848;3.272;2023-12-07T05:40:34;5.60;99.90
21035;DHT22;10676;50.848;3.272;2023-12-07T05:43:00;5.60;99.90
21035;DHT22;10676;50.848;3.272;2023-12-07T05:45:25;5.60;99.90
21035;DHT22;10676;50.848;3.272;2023-12-07T05:47:51;5.60;99.90
21035;DHT22;10676;50.848;3.272;2023-12-07T05:50:17;5.60;99.90
21035;DHT22;10676;50.848;3.272;2023-12-07T05:52:43;5.60;99.90
21035;DHT22;10676;50.848;3.272;2023-12-07T05:55:09;5.60;99.90
21035;DHT22;10676;50.848;3.272;2023-12-07T05:57:35;5.60;99.90
21035;DHT22;10676;50.848;3.272;2023-12-07T06:00:01;5.60;99.90
21035;DHT22;10676;50.848;3.272;2023-12-07T06:02:26;5.50;99.90
21035;DHT22;10676;50.848;3.272;2023-12-07T06:04:53;5.50;99.90
21035;DHT22;10676;50.848;3.272;2023-12-07T06:07:18;5.50;99.90
21035;DHT22;10676;50.848;3.272;2023-12-07T06:09:44;5.60;99.90
21035;DHT22;10676;50.848;3.272;2023-12-07T06:12:10;5.50;99.90
21035;DHT22;10676;50.848;3.272;2023-12-07T06:14:35;5.50;99.90
21035;DHT22;10676;50.848;3.272;2023-12-07T06:17:01;5.50;99.90
21035;DHT22;10676;50.848;3.272;2023-12-07T06:19:26;5.50;99.90
21035;DHT22;10676;50.848;3.272;2023-12-07T06:21:52;5.50;99.90
21035;DHT22;10676;50.848;3.272;2023-12-07T06:24:18;5.50;99.90
21035;DHT22;10676;50.848;3.272;2023-12-07T06:26:43;5.50;99.90
21035;DHT22;10676;50.848;3.272;2023-12-07T06:29:09;5.50;99.90
21035;DHT22;10676;50.848;3.272;2023-12-07T06:31:35;5.50;99.90
21035;DHT22;10676;50.848;3.272;2023-12-07T06:34:01;5.50;99.90
21035;DHT22;10676;50.848;3.272;2023-12-07T06:36:26;5.50;99.90
21035;DHT22;10676;50.848;3.272;2023-12-07T06:38:53;5.50;99.90
21035;DHT22;10676;50.848;3.272;2023-12-07T06:41:23;5.50;99.90
21035;DHT22;10676;50.848;3.272;2023-12-07T06:43:49;5.50;99.90
21035;DHT22;10676;50.848;3.272;2023-12-07T06:46:14;5.60;99.90
21035;DHT22;10676;50.848;3.272;2023-12-07T06:48:42;5.70;99.90
21035;DHT22;10676;50.848;3.272;2023-12-07T06:51:07;5.50;99.90
21035;DHT22;10676;50.848;3.272;2023-12-07T06:53:33;5.50;99.90
21035;DHT22;10676;50.848;3.272;2023-12-07T06:55:59;5.60;99.90
21035;DHT22;10676;50.848;3.272;2023-12-07T06:58:24;5.50;99.90
21035;DHT22;10676;50.848;3.272;2023-12-07T07:00:51;5.50;99.90
21035;DHT22;10676;50.848;3.272;2023-12-07T07:03:17;5.50;99.90
21035;DHT22;10676;50.848;3.272;2023-12-07T07:05:43;5.50;99.90
21035;DHT22;10676;50.848;3.272;2023-12-07T07:08:08;5.50;99.90
21035;DHT22;10676;50.848;3.272;2023-12-07T07:10:34;5.60;99.90
21035;DHT22;10676;50.848;3.272;2023-12-07T07:13:01;5.50;99.90
21035;DHT22;10676;50.848;3.272;2023-12-07T07:15:33;5.60;99.90
21035;DHT22;10676;50.848;3.272;2023-12-07T07:17:59;5.50;99.90
21035;DHT22;10676;50.848;3.272;2023-12-07T07:20:25;5.60;99.90
21035;DHT22;10676;50.848;3.272;2023-12-07T07:22:51;5.50;99.90
21035;DHT22;10676;50.848;3.272;2023-12-07T07:25:16;5.50;99.90
21035;DHT22;10676;50.848;3.272;2023-12-07T07:27:45;5.50;99.90
21035;DHT22;10676;50.848;3.272;2023-12-07T07:30:11;5.50;99.90
21035;DHT22;10676;50.848;3.272;2023-12-07T07:32:37;5.40;99.90
21035;DHT22;10676;50.848;3.272;2023-12-07T07:35:03;5.50;99.90
21035;DHT22;10676;50.848;3.272;2023-12-07T07:37:29;5.40;99.90
21035;DHT22;10676;50.848;3.272;2023-12-07T07:39:55;5.40;99.90
21035;DHT22;10676;50.848;3.272;2023-12-07T07:42:20;5.40;99.90
21035;DHT22;10676;50.848;3.272;2023-12-07T07:44:46;5.30;99.90
21035;DHT22;10676;50.848;3.272;2023-12-07T07:47:12;5.30;99.90
21035;DHT22;10676;50.848;3.272;2023-12-07T07:49:37;5.30;99.90
21035;DHT22;10676;50.848;3.272;2023-12-07T07:52:03;5.30;99.90
21035;DHT22;10676;50.848;3.272;2023-12-07T07:54:30;5.30;99.90
21035;DHT22;10676;50.848;3.272;2023-12-07T07:56:56;5.30;99.90
21035;DHT22;10676;50.848;3.272;2023-12-07T07:59:22;5.30;99.90
21035;DHT22;10676;50.848;3.272;2023-12-07T08:01:47;5.30;99.90
21035;DHT22;10676;50.848;3.272;2023-12-07T08:04:13;5.30;99.90
21035;DHT22;10676;50.848;3.272;2023-12-07T08:06:39;5.30;99.90
21035;DHT22;10676;50.848;3.272;2023-12-07T08:09:05;5.40;99.90
21035;DHT22;10676;50.848;3.272;2023-12-07T08:11:30;5.40;99.90
21035;DHT22;10676;50.848;3.272;2023-12-07T08:13:58;5.50;99.90
21035;DHT22;10676;50.848;3.272;2023-12-07T08:16:23;5.60;99.90
21035;DHT22;10676;50.848;3.272;2023-12-07T08:18:49;5.60;99.90
21035;DHT22;10676;50.848;3.272;2023-12-07T08:21:21;5.70;99.90
21035;DHT22;10676;50.848;3.272;2023-12-07T08:23:47;5.70;99.90
21035;DHT22;10676;50.848;3.272;2023-12-07T08:26:14;5.70;99.90
21035;DHT22;10676;50.848;3.272;2023-12-07T08:28:41;5.70;99.90
21035;DHT22;10676;50.848;3.272;2023-12-07T08:31:07;5.70;99.90
21035;DHT22;10676;50.848;3.272;2023-12-07T08:33:32;5.80;99.90
21035;DHT22;10676;50.848;3.272;2023-12-07T08:36:02;5.90;99.90
21035;DHT22;10676;50.848;3.272;2023-12-07T08:38:27;5.80;99.90
21035;DHT22;10676;50.848;3.272;2023-12-07T08:40:53;5.80;99.90
21035;DHT22;10676;50.848;3.272;2023-12-07T08:43:21;5.80;99.90
21035;DHT22;10676;50.848;3.272;2023-12-07T08:45:51;5.90;99.90
21035;DHT22;10676;50.848;3.272;2023-12-07T08:48:18;5.90;99.90
21035;DHT22;10676;50.848;3.272;2023-12-07T08:50:43;5.90;99.90
21035;DHT22;10676;50.848;3.272;2023-12-07T08:53:09;6.00;99.90
21035;DHT22;10676;50.848;3.272;2023-12-07T08:55:34;6.10;99.90
21035;DHT22;10676;50.848;3.272;2023-12-07T08:58:00;6.10;99.90
21035;DHT22;10676;50.848;3.272;2023-12-07T09:00:26;6.20;99.90
21035;DHT22;10676;50.848;3.272;2023-12-07T09:02:52;6.30;99.90
21035;DHT22;10676;50.848;3.272;2023-12-07T09:05:18;6.30;99.90
21035;DHT22;10676;50.848;3.272;2023-12-07T09:07:44;6.40;99.90
21035;DHT22;10676;50.848;3.272;2023-12-07T09:10:10;6.60;99.90
21035;DHT22;10676;50.848;3.272;2023-12-07T09:12:37;6.70;99.90
21035;DHT22;10676;50.848;3.272;2023-12-07T09:15:03;6.80;99.90
21035;DHT22;10676;50.848;3.272;2023-12-07T09:17:29;6.90;99.90
21035;DHT22;10676;50.848;3.272;2023-12-07T09:19:54;7.10;99.90
21035;DHT22;10676;50.848;3.272;2023-12-07T09:22:20;7.30;99.90
21035;DHT22;10676;50.848;3.272;2023-12-07T09:24:46;7.40;99.90
21035;DHT22;10676;50.848;3.272;2023-12-07T09:27:13;7.50;99.90
21035;DHT22;10676;50.848;3.272;2023-12-07T09:29:39;7.70;99.90
21035;DHT22;10676;50.848;3.272;2023-12-07T09:32:06;7.80;99.90
21035;DHT22;10676;50.848;3.272;2023-12-07T09:34:32;7.90;99.90
21035;DHT22;10676;50.848;3.272;2023-12-07T09:37:10;7.90;99.90
21035;DHT22;10676;50.848;3.272;2023-12-07T09:39:36;8.00;99.90
21035;DHT22;10676;50.848;3.272;2023-12-07T09:42:02;8.10;99.90
21035;DHT22;10676;50.848;3.272;2023-12-07T09:44:28;8.00;99.90
21035;DHT22;10676;50.848;3.272;2023-12-07T09:46:54;8.10;99.90
21035;DHT22;10676;50.848;3.272;2023-12-07T09:49:20;8.10;99.90
21035;DHT22;10676;50.848;3.272;2023-12-07T09:51:46;8.20;99.90
21035;DHT22;10676;50.848;3.272;2023-12-07T09:54:12;8.30;99.90
21035;DHT22;10676;50.848;3.272;2023-12-07T09:56:38;8.50;99.90
21035;DHT22;10676;50.848;3.272;2023-12-07T09:59:04;8.60;99.90
21035;DHT22;10676;50.848;3.272;2023-12-07T10:01:31;8.70;99.90
21035;DHT22;10676;50.848;3.272;2023-12-07T10:04:16;8.70;99.90
21035;DHT22;10676;50.848;3.272;2023-12-07T10:06:43;8.60;99.90
21035;DHT22;10676;50.848;3.272;2023-12-07T10:09:10;8.50;99.90
21035;DHT22;10676;50.848;3.272;2023-12-07T10:11:36;8.50;99.90
21035;DHT22;10676;50.848;3.272;2023-12-07T10:14:02;8.50;99.90
21035;DHT22;10676;50.848;3.272;2023-12-07T10:16:28;8.50;99.90
21035;DHT22;10676;50.848;3.272;2023-12-07T10:18:53;8.60;99.90
21035;DHT22;10676;50.848;3.272;2023-12-07T10:21:32;8.70;99.90
21035;DHT22;10676;50.848;3.272;2023-12-07T10:23:58;8.80;99.90
21035;DHT22;10676;50.848;3.272;2023-12-07T10:26:23;8.70;99.90
21035;DHT22;10676;50.848;3.272;2023-12-07T10:28:52;8.80;99.90
21035;DHT22;10676;50.848;3.272;2023-12-07T10:31:19;8.80;99.90
21035;DHT22;10676;50.848;3.272;2023-12-07T10:33:49;8.90;99.90
21035;DHT22;10676;50.848;3.272;2023-12-07T10:36:15;9.00;99.90
21035;DHT22;10676;50.848;3.272;2023-12-07T10:38:40;9.10;99.90
21035;DHT22;10676;50.848;3.272;2023-12-07T10:41:12;9.00;99.90
21035;DHT22;10676;50.848;3.272;2023-12-07T10:43:42;9.10;99.90
21035;DHT22;10676;50.848;3.272;2023-12-07T10:46:09;9.10;99.90
21035;DHT22;10676;50.848;3.272;2023-12-07T10:48:35;9.20;99.90
21035;DHT22;10676;50.848;3.272;2023-12-07T10:51:07;9.20;99.90
21035;DHT22;10676;50.848;3.272;2023-12-07T10:53:45;9.20;99.90
21035;DHT22;10676;50.848;3.272;2023-12-07T10:56:24;9.30;99.90
21035;DHT22;10676;50.848;3.272;2023-12-07T10:58:55;9.30;99.90
21035;DHT22;10676;50.848;3.272;2023-12-07T11:01:25;9.30;99.90
21035;DHT22;10676;50.848;3.272;2023-12-07T11:03:52;9.30;99.90
21035;DHT22;10676;50.848;3.272;2023-12-07T11:06:19;9.30;99.90
21035;DHT22;10676;50.848;3.272;2023-12-07T11:08:48;9.30;99.90
21035;DHT22;10676;50.848;3.272;2023-12-07T11:14:09;9.30;99.90
21035;DHT22;10676;50.848;3.272;2023-12-07T11:16:40;9.30;99.90
21035;DHT22;10676;50.848;3.272;2023-12-07T11:22:01;9.30;99.90
21035;DHT22;10676;50.848;3.272;2023-12-07T11:24:27;9.30;99.90
21035;DHT22;10676;50.848;3.272;2023-12-07T11:26:53;9.30;99.90
21035;DHT22;10676;50.848;3.272;2023-12-07T11:29:20;9.40;99.90
21035;DHT22;10676;50.848;3.272;2023-12-07T11:31:48;9.40;99.90
21035;DHT22;10676;50.848;3.272;2023-12-07T11:34:13;9.50;99.90
21035;DHT22;10676;50.848;3.272;2023-12-07T11:36:40;9.60;99.90
21035;DHT22;10676;50.848;3.272;2023-12-07T11:41:44;9.60;99.90
21035;DHT22;10676;50.848;3.272;2023-12-07T11:44:11;9.80;99.90
21035;DHT22;10676;50.848;3.272;2023-12-07T11:46:40;9.90;99.90
21035;DHT22;10676;50.848;3.272;2023-12-07T11:49:06;9.90;99.90
21035;DHT22;10676;50.848;3.272;2023-12-07T11:51:36;10.00;99.90
21035;DHT22;10676;50.848;3.272;2023-12-07T11:54:02;10.00;99.90
21035;DHT22;10676;50.848;3.272;2023-12-07T11:56:27;10.00;99.90
21035;DHT22;10676;50.848;3.272;2023-12-07T11:58:53;10.00;99.90
21035;DHT22;10676;50.848;3.272;2023-12-07T12:01:21;10.00;99.90
21035;DHT22;10676;50.848;3.272;2023-12-07T12:03:47;10.00;99.90
21035;DHT22;10676;50.848;3.272;2023-12-07T12:06:13;10.00;99.90
21035;DHT22;10676;50.848;3.272;2023-12-07T12:08:40;10.00;99.90
21035;DHT22;10676;50.848;3.272;2023-12-07T12:11:06;10.00;99.90
21035;DHT22;10676;50.848;3.272;2023-12-07T12:13:36;9.90;99.90
21035;DHT22;10676;50.848;3.272;2023-12-07T12:16:03;9.90;99.90
21035;DHT22;10676;50.848;3.272;2023-12-07T12:18:29;9.90;99.90
21035;DHT22;10676;50.848;3.272;2023-12-07T12:20:55;9.90;99.90
21035;DHT22;10676;50.848;3.272;2023-12-07T12:23:21;9.90;99.90
21035;DHT22;10676;50.848;3.272;2023-12-07T12:25:47;9.80;99.90
21035;DHT22;10676;50.848;3.272;2023-12-07T12:28:16;9.80;99.90
21035;DHT22;10676;50.848;3.272;2023-12-07T12:30:43;9.70;99.90
21035;DHT22;10676;50.848;3.272;2023-12-07T12:33:09;9.70;99.90
21035;DHT22;10676;50.848;3.272;2023-12-07T12:35:35;9.60;99.90
21035;DHT22;10676;50.848;3.272;2023-12-07T12:38:01;9.70;99.90
21035;DHT22;10676;50.848;3.272;2023-12-07T12:40:30;9.70;99.90
21035;DHT22;10676;50.848;3.272;2023-12-07T12:42:57;9.70;99.90
21035;DHT22;10676;50.848;3.272;2023-12-07T12:45:23;9.70;99.90
21035;DHT22;10676;50.848;3.272;2023-12-07T12:47:49;9.70;99.90
21035;DHT22;10676;50.848;3.272;2023-12-07T12:50:37;9.70;99.90
21035;DHT22;10676;50.848;3.272;2023-12-07T12:53:04;9.70;99.90
21035;DHT22;10676;50.848;3.272;2023-12-07T12:55:41;9.60;99.90
21035;DHT22;10676;50.848;3.272;2023-12-07T12:58:07;9.50;99.90
21035;DHT22;10676;50.848;3.272;2023-12-07T13:00:34;9.50;99.90
21035;DHT22;10676;50.848;3.272;2023-12-07T13:03:04;9.40;99.90
21035;DHT22;10676;50.848;3.272;2023-12-07T13:05:30;9.40;99.90
21035;DHT22;10676;50.848;3.272;2023-12-07T13:07:57;9.40;99.90
21035;DHT22;10676;50.848;3.272;2023-12-07T13:10:25;9.40;99.90
21035;DHT22;10676;50.848;3.272;2023-12-07T13:12:50;9.40;99.90
21035;DHT22;10676;50.848;3.272;2023-12-07T13:15:16;9.40;99.90
21035;DHT22;10676;50.848;3.272;2023-12-07T13:17:42;9.40;99.90
21035;DHT22;10676;50.848;3.272;2023-12-07T13:20:09;9.30;99.90
21035;DHT22;10676;50.848;3.272;2023-12-07T13:22:40;9.30;99.90
21035;DHT22;10676;50.848;3.272;2023-12-07T13:25:06;9.30;99.90
21035;DHT22;10676;50.848;3.272;2023-12-07T13:27:33;9.30;99.90
21035;DHT22;10676;50.848;3.272;2023-12-07T13:29:59;9.30;99.90
21035;DHT22;10676;50.848;3.272;2023-12-07T13:32:25;9.20;99.90
21035;DHT22;10676;50.848;3.272;2023-12-07T13:34:51;9.20;99.90
21035;DHT22;10676;50.848;3.272;2023-12-07T13:37:17;9.10;99.90
21035;DHT22;10676;50.848;3.272;2023-12-07T13:39:43;9.10;99.90
21035;DHT22;10676;50.848;3.272;2023-12-07T13:42:08;9.10;99.90
21035;DHT22;10676;50.848;3.272;2023-12-07T13:44:35;9.00;99.90
21035;DHT22;10676;50.848;3.272;2023-12-07T13:47:01;9.00;99.90
21035;DHT22;10676;50.848;3.272;2023-12-07T13:49:27;9.00;99.90
21035;DHT22;10676;50.848;3.272;2023-12-07T13:51:53;8.90;99.90
21035;DHT22;10676;50.848;3.272;2023-12-07T13:54:18;8.90;99.90
21035;DHT22;10676;50.848;3.272;2023-12-07T13:56:44;8.90;99.90
21035;DHT22;10676;50.848;3.272;2023-12-07T13:59:10;8.90;99.90
21035;DHT22;10676;50.848;3.272;2023-12-07T14:01:37;8.80;99.90
21035;DHT22;10676;50.848;3.272;2023-12-07T14:04:06;8.80;99.90
21035;DHT22;10676;50.848;3.272;2023-12-07T14:06:31;8.70;99.90
21035;DHT22;10676;50.848;3.272;2023-12-07T14:09:00;8.70;99.90
21035;DHT22;10676;50.848;3.272;2023-12-07T14:11:26;8.60;99.90
21035;DHT22;10676;50.848;3.272;2023-12-07T14:13:52;8.60;99.90
21035;DHT22;10676;50.848;3.272;2023-12-07T14:16:20;8.50;99.90
21035;DHT22;10676;50.848;3.272;2023-12-07T14:18:46;8.50;99.90
21035;DHT22;10676;50.848;3.272;2023-12-07T14:21:12;8.50;99.90
21035;DHT22;10676;50.848;3.272;2023-12-07T14:23:39;8.50;99.90
21035;DHT22;10676;50.848;3.272;2023-12-07T14:26:05;8.40;99.90
21035;DHT22;10676;50.848;3.272;2023-12-07T14:28:31;8.40;99.90
21035;DHT22;10676;50.848;3.272;2023-12-07T14:30:59;8.40;99.90
21035;DHT22;10676;50.848;3.272;2023-12-07T14:33:24;8.30;99.90
21035;DHT22;10676;50.848;3.272;2023-12-07T14:35:50;8.30;99.90
21035;DHT22;10676;50.848;3.272;2023-12-07T14:38:16;8.30;99.90
21035;DHT22;10676;50.848;3.272;2023-12-07T14:40:41;8.30;99.90
21035;DHT22;10676;50.848;3.272;2023-12-07T14:43:07;8.30;99.90
21035;DHT22;10676;50.848;3.272;2023-12-07T14:45:33;8.20;99.90
21035;DHT22;10676;50.848;3.272;2023-12-07T14:47:58;8.20;99.90
21035;DHT22;10676;50.848;3.272;2023-12-07T14:50:24;8.20;99.90
21035;DHT22;10676;50.848;3.272;2023-12-07T14:52:50;8.10;99.90
21035;DHT22;10676;50.848;3.272;2023-12-07T14:55:16;8.10;99.90
21035;DHT22;10676;50.848;3.272;2023-12-07T14:57:44;8.10;99.90
21035;DHT22;10676;50.848;3.272;2023-12-07T15:00:10;8.10;99.90
21035;DHT22;10676;50.848;3.272;2023-12-07T15:02:36;8.00;99.90
21035;DHT22;10676;50.848;3.272;2023-12-07T15:05:01;8.00;99.90
21035;DHT22;10676;50.848;3.272;2023-12-07T15:07:27;8.00;99.90
21035;DHT22;10676;50.848;3.272;2023-12-07T15:09:53;7.90;99.90
21035;DHT22;10676;50.848;3.272;2023-12-07T15:12:20;7.90;99.90
21035;DHT22;10676;50.848;3.272;2023-12-07T15:14:46;7.80;99.90
21035;DHT22;10676;50.848;3.272;2023-12-07T15:17:11;7.80;99.90
21035;DHT22;10676;50.848;3.272;2023-12-07T15:19:37;7.80;99.90
21035;DHT22;10676;50.848;3.272;2023-12-07T15:22:03;7.70;99.90
21035;DHT22;10676;50.848;3.272;2023-12-07T15:24:29;7.70;99.90
21035;DHT22;10676;50.848;3.272;2023-12-07T15:26:55;7.70;99.90
21035;DHT22;10676;50.848;3.272;2023-12-07T15:29:21;7.60;99.90
21035;DHT22;10676;50.848;3.272;2023-12-07T15:31:46;7.60;99.90
21035;DHT22;10676;50.848;3.272;2023-12-07T15:34:12;7.60;99.90
21035;DHT22;10676;50.848;3.272;2023-12-07T15:36:38;7.60;99.90
21035;DHT22;10676;50.848;3.272;2023-12-07T15:39:04;7.50;99.90
21035;DHT22;10676;50.848;3.272;2023-12-07T15:41:32;7.50;99.90
21035;DHT22;10676;50.848;3.272;2023-12-07T15:43:58;7.50;99.90
21035;DHT22;10676;50.848;3.272;2023-12-07T15:46:23;7.50;99.90
21035;DHT22;10676;50.848;3.272;2023-12-07T15:48:49;7.40;99.90
21035;DHT22;10676;50.848;3.272;2023-12-07T15:51:14;7.40;99.90
21035;DHT22;10676;50.848;3.272;2023-12-07T15:53:40;7.40;99.90